Time;durP1;ratioP1;P1;durP2;ratioP2;P2;SDS_P1;SDS_P2;PMS_P1;PMS_P2;Temp;Humidity;BMP_temperature;BMP_pressure;BME280_temperature;BME280_humidity;BME280_pressure;Samples;Min_cycle;Max_cycle;Signal;HPM_P1;HPM_P2
2022/12/14 00:00:46;;;;;;;;;;;;;;;21.05;32.82;94797.69;6115752;19;2151;-63
2022/12/14 00:02:49;;;;;;;;;;;;;;;21.09;32.51;94803.41;6112867;19;2236;-63
2022/12/14 00:04:55;;;;;;;;;;;;;;;21.12;32.55;94801.13;6126348;19;2135;-62
2022/12/14 00:06:59;;;;;;;;;;;;;;;21.18;32.49;94796.78;6125127;19;1927;-62
2022/12/14 00:09:03;;;;;;;;;;;;;;;21.15;32.19;94795.34;6121255;19;978;-64
2022/12/14 00:11:06;;;;;;;;;;;;;;;21.15;32.23;94795.34;6121803;19;1860;-63
2022/12/14 00:13:10;;;;;;;;;;;;;;;21.15;32.60;94797.19;6099004;19;2222;-63
2022/12/14 00:15:13;;;;;;;;;;;;;;;21.14;32.61;94801.72;6126251;19;2112;-63
2022/12/14 00:17:17;;;;;;;;;;;;;;;21.16;32.54;94807.63;6123155;19;2067;-62
2022/12/14 00:19:20;;;;;;;;;;;;;;;21.15;32.41;94802.53;6125615;19;1930;-62
2022/12/14 00:21:26;;;;;;;;;;;;;;;21.13;32.96;94805.41;6125094;19;2306;-63
2022/12/14 00:23:30;;;;;;;;;;;;;;;21.14;32.75;94809.75;6109726;19;1777;-62
2022/12/14 00:25:33;;;;;;;;;;;;;;;21.10;32.80;94805.84;6112050;19;1956;-64
2022/12/14 00:27:36;;;;;;;;;;;;;;;21.10;32.56;94815.72;6124467;19;1752;-63
2022/12/14 00:29:39;;;;;;;;;;;;;;;21.09;33.03;94812.25;6120987;19;1831;-62
2022/12/14 00:31:43;;;;;;;;;;;;;;;21.10;33.00;94808.53;6118513;19;979;-63
2022/12/14 00:33:46;;;;;;;;;;;;;;;21.10;32.64;94805.03;6123504;19;1912;-63
2022/12/14 00:35:49;;;;;;;;;;;;;;;21.09;32.71;94806.91;6099124;19;2096;-62
2022/12/14 00:37:55;;;;;;;;;;;;;;;21.10;32.97;94803.19;6126367;19;2293;-62
2022/12/14 00:39:58;;;;;;;;;;;;;;;21.08;33.16;94796.44;6123565;19;1021;-61
2022/12/14 00:42:02;;;;;;;;;;;;;;;21.10;32.80;94797.84;6120847;19;1136;-63
2022/12/14 00:44:05;;;;;;;;;;;;;;;21.11;32.87;94787.97;6126188;19;2145;-62
2022/12/14 00:46:08;;;;;;;;;;;;;;;21.07;33.05;94790.28;6123806;19;2120;-62
2022/12/14 00:48:12;;;;;;;;;;;;;;;21.05;32.84;94805.69;6102267;19;2147;-62
2022/12/14 00:50:15;;;;;;;;;;;;;;;21.04;33.40;94801.41;6124201;19;1985;-63
2022/12/14 00:52:20;;;;;;;;;;;;;;;21.04;33.12;94812.06;6123739;19;2163;-65
2022/12/14 00:54:26;;;;;;;;;;;;;;;21.06;33.21;94803.84;6123569;19;2086;-63
2022/12/14 00:56:29;;;;;;;;;;;;;;;21.04;33.22;94806.75;6122394;19;2190;-63
2022/12/14 00:58:32;;;;;;;;;;;;;;;21.05;33.17;94813.69;6099891;19;3251;-66
2022/12/14 01:00:36;;;;;;;;;;;;;;;21.04;33.33;94808.59;6122818;19;2261;-63
2022/12/14 01:02:39;;;;;;;;;;;;;;;21.03;33.24;94810.47;6125989;19;2194;-62
2022/12/14 01:04:42;;;;;;;;;;;;;;;21.02;33.35;94803.47;6126428;19;2118;-63
2022/12/14 01:06:46;;;;;;;;;;;;;;;21.03;32.89;94818.47;6126099;19;2147;-63
2022/12/14 01:08:49;;;;;;;;;;;;;;;21.00;33.15;94801.03;6123457;19;1946;-64
2022/12/14 01:10:55;;;;;;;;;;;;;;;21.06;33.43;94799.34;6100549;19;2193;-63
2022/12/14 01:12:58;;;;;;;;;;;;;;;21.02;33.70;94811.47;6124267;19;1985;-65
2022/12/14 01:15:02;;;;;;;;;;;;;;;21.02;33.26;94809.63;6122864;19;2660;-63
2022/12/14 01:17:05;;;;;;;;;;;;;;;21.02;33.26;94812.28;6123017;19;1959;-63
2022/12/14 01:19:09;;;;;;;;;;;;;;;21.05;33.44;94811.03;6122645;19;2339;-63
2022/12/14 01:21:13;;;;;;;;;;;;;;;21.06;33.25;94807.34;6112856;19;2058;-63
2022/12/14 01:23:16;;;;;;;;;;;;;;;21.05;33.10;94811.03;6107271;19;1783;-64
2022/12/14 01:25:20;;;;;;;;;;;;;;;21.01;33.58;94808.00;6122495;19;2342;-64
2022/12/14 01:27:26;;;;;;;;;;;;;;;21.01;33.09;94813.34;6122651;19;1950;-64
2022/12/14 01:29:29;;;;;;;;;;;;;;;21.06;33.32;94812.69;6123540;19;2296;-62
2022/12/14 01:31:34;;;;;;;;;;;;;;;21.05;33.62;94815.56;6119179;19;2416;-62
2022/12/14 01:33:37;;;;;;;;;;;;;;;21.03;33.42;94807.78;6097706;19;2183;-62
2022/12/14 01:35:40;;;;;;;;;;;;;;;21.06;33.07;94803.84;6122201;19;2330;-63
2022/12/14 01:37:44;;;;;;;;;;;;;;;21.04;33.38;94804.06;6120321;19;2028;-62
2022/12/14 01:39:48;;;;;;;;;;;;;;;21.03;33.21;94799.78;6124477;19;2115;-62
2022/12/14 01:41:52;;;;;;;;;;;;;;;20.99;33.65;94794.03;6118812;19;1129;-63
2022/12/14 01:44:00;;;;;;;;;;;;;;;21.04;33.59;94790.72;6110488;19;2131;-63
2022/12/14 01:46:04;;;;;;;;;;;;;;;21.02;33.41;94782.91;6109079;19;1891;-63
2022/12/14 01:48:12;;;;;;;;;;;;;;;21.03;33.38;94778.41;6122512;19;2442;-64
2022/12/14 01:50:19;;;;;;;;;;;;;;;21.03;33.69;94773.06;6122486;19;2331;-63
2022/12/14 01:52:24;;;;;;;;;;;;;;;21.02;33.60;94768.72;6123234;19;1907;-63
2022/12/14 01:54:30;;;;;;;;;;;;;;;21.01;33.85;94777.78;6122800;19;2169;-63
2022/12/14 01:56:35;;;;;;;;;;;;;;;21.04;33.52;94774.69;6097123;19;2812;-63
2022/12/14 01:58:39;;;;;;;;;;;;;;;20.99;33.88;94783.34;6119055;19;2013;-62
2022/12/14 02:00:45;;;;;;;;;;;;;;;21.00;33.82;94773.50;6118444;19;1041;-62
2022/12/14 02:02:51;;;;;;;;;;;;;;;20.99;34.47;94778.00;6120696;19;2352;-64
2022/12/14 02:04:56;;;;;;;;;;;;;;;20.99;34.58;94766.50;6121296;19;1960;-61
2022/12/14 02:07:00;;;;;;;;;;;;;;;21.02;34.18;94772.22;6110711;19;1931;-62
2022/12/14 02:09:04;;;;;;;;;;;;;;;21.02;34.40;94760.72;6107082;19;2320;-62
2022/12/14 02:11:07;;;;;;;;;;;;;;;21.01;34.45;94757.25;6118663;19;1837;-62
2022/12/14 02:13:14;;;;;;;;;;;;;;;21.04;34.83;94760.50;6118753;19;2467;-62
2022/12/14 02:15:18;;;;;;;;;;;;;;;21.07;34.14;94768.91;6119056;19;2156;-62
2022/12/14 02:17:24;;;;;;;;;;;;;;;21.04;33.97;94769.34;6123039;19;1926;-63
2022/12/14 02:19:27;;;;;;;;;;;;;;;21.08;34.26;94765.19;6098695;19;2131;-62
2022/12/14 02:21:40;;;;;;;;;;;;;;;21.07;34.65;94758.22;6120878;19;2385;-67
2022/12/14 02:24:01;;;;;;;;;;;;;;;21.04;34.47;94752.50;6118165;19;2328;-67
2022/12/14 02:26:17;;;;;;;;;;;;;;;21.02;34.19;94744.69;6120718;19;2105;-67
2022/12/14 02:28:39;;;;;;;;;;;;;;;21.04;34.13;94741.81;6120477;19;2090;-66
2022/12/14 02:30:50;;;;;;;;;;;;;;;21.05;34.41;94749.59;6096493;19;2131;-66
2022/12/14 02:33:13;;;;;;;;;;;;;;;21.04;34.02;94742.63;6122078;19;2080;-66
2022/12/14 02:35:23;;;;;;;;;;;;;;;21.04;34.53;94734.63;6123479;19;1920;-66
2022/12/14 02:37:30;;;;;;;;;;;;;;;21.06;34.34;94734.38;6119189;19;2474;-66
2022/12/14 02:39:41;;;;;;;;;;;;;;;21.04;34.14;94739.97;6122490;19;2310;-66
2022/12/14 02:41:51;;;;;;;;;;;;;;;21.06;34.17;94729.88;6099537;19;2016;-65
2022/12/14 02:44:00;;;;;;;;;;;;;;;21.02;34.50;94734.81;6119477;19;2333;-66
2022/12/14 02:46:12;;;;;;;;;;;;;;;21.01;34.54;94732.38;6121138;19;1891;-65
2022/12/14 02:48:18;;;;;;;;;;;;;;;21.03;34.56;94730.31;6119530;19;1951;-65
2022/12/14 02:50:24;;;;;;;;;;;;;;;21.03;34.22;94738.34;6121653;19;1853;-65
2022/12/14 02:52:32;;;;;;;;;;;;;;;21.02;34.97;94732.16;6112951;19;2275;-65
2022/12/14 02:54:40;;;;;;;;;;;;;;;21.00;34.45;94726.22;6106774;19;1938;-65
2022/12/14 02:56:46;;;;;;;;;;;;;;;21.01;34.84;94717.19;6119637;19;1152;-65
2022/12/14 02:58:50;;;;;;;;;;;;;;;21.04;35.01;94721.25;6119169;19;1246;-64
2022/12/14 03:00:55;;;;;;;;;;;;;;;21.04;34.73;94726.59;6120384;19;1907;-65
2022/12/14 03:03:01;;;;;;;;;;;;;;;21.03;34.52;94716.97;6122513;19;2411;-65
2022/12/14 03:05:07;;;;;;;;;;;;;;;21.05;34.27;94716.72;6096988;19;1602;-65
2022/12/14 03:07:31;;;;;;;;;;;;;;;21.06;34.58;94718.34;6118476;19;1128;-64
2022/12/14 03:09:34;;;;;;;;;;;;;;;21.05;34.22;94730.09;6119502;19;1677;-64
2022/12/14 03:11:42;;;;;;;;;;;;;;;21.04;34.42;94729.28;6118882;19;1961;-65
2022/12/14 03:13:50;;;;;;;;;;;;;;;21.02;34.66;94732.16;6117891;19;986;-64
2022/12/14 03:15:56;;;;;;;;;;;;;;;21.03;34.28;94733.00;6107869;19;2168;-64
2022/12/14 03:18:03;;;;;;;;;;;;;;;21.03;34.83;94727.66;6109986;19;2110;-65
2022/12/14 03:20:11;;;;;;;;;;;;;;;21.01;34.69;94725.19;6121016;19;2156;-64
2022/12/14 03:22:17;;;;;;;;;;;;;;;21.06;35.21;94721.88;6121663;19;2339;-66
2022/12/14 03:24:25;;;;;;;;;;;;;;;21.06;35.00;94711.19;6121560;19;2085;-65
2022/12/14 03:26:33;;;;;;;;;;;;;;;21.04;34.63;94707.91;6122036;19;1760;-66
2022/12/14 03:28:38;;;;;;;;;;;;;;;21.02;34.91;94708.13;6095181;19;1350;-65
2022/12/14 03:30:43;;;;;;;;;;;;;;;21.10;35.16;94712.34;6121064;19;2134;-63
2022/12/14 03:32:49;;;;;;;;;;;;;;;21.12;34.94;94718.31;6121824;19;2088;-66
2022/12/14 03:34:59;;;;;;;;;;;;;;;21.11;34.78;94711.31;6120204;19;2156;-66
2022/12/14 03:37:06;;;;;;;;;;;;;;;21.15;35.34;94711.69;6118416;19;2137;-66
2022/12/14 03:39:11;;;;;;;;;;;;;;;21.12;35.20;94704.94;6095444;19;1943;-65
2022/12/14 03:41:17;;;;;;;;;;;;;;;21.15;35.53;94709.03;6119792;19;2209;-66
2022/12/14 03:43:22;;;;;;;;;;;;;;;21.16;35.06;94716.81;6121079;19;2206;-65
2022/12/14 03:45:31;;;;;;;;;;;;;;;21.14;35.11;94718.91;6119905;19;2086;-67
2022/12/14 03:47:45;;;;;;;;;;;;;;;21.14;35.83;94720.72;6119182;19;2317;-66
2022/12/14 03:49:59;;;;;;;;;;;;;;;21.24;35.29;94731.75;6109725;19;2208;-65
2022/12/14 03:52:05;;;;;;;;;;;;;;;21.20;35.51;94735.94;6105985;19;2447;-68
2022/12/14 03:54:11;;;;;;;;;;;;;;;20.94;34.56;94731.63;6118069;19;1899;-66
2022/12/14 03:56:16;;;;;;;;;;;;;;;21.09;35.39;94718.75;6118147;19;1046;-66
2022/12/14 03:58:24;;;;;;;;;;;;;;;21.18;35.39;94716.63;6118020;19;1926;-65
2022/12/14 04:00:29;;;;;;;;;;;;;;;21.18;35.54;94713.94;6118079;19;2148;-69
2022/12/14 04:02:36;;;;;;;;;;;;;;;21.21;35.14;94710.84;6095780;19;2139;-70
2022/12/14 04:04:45;;;;;;;;;;;;;;;21.22;34.97;94715.13;6119275;19;2158;-69
2022/12/14 04:06:54;;;;;;;;;;;;;;;21.26;35.10;94729.69;6122102;19;1148;-64
2022/12/14 04:09:03;;;;;;;;;;;;;;;21.20;34.75;94718.03;6123607;19;2060;-68
2022/12/14 04:20:21;;;;;;;;;;;;;;;11.92;33.56;94733.00;6124804;19;1864;-67
2022/12/14 04:22:29;;;;;;;;;;;;;;;12.55;33.81;94740.22;6126554;19;2163;-66
2022/12/14 04:26:57;;;;;;;;;;;;;;;12.06;33.48;94734.97;6126134;19;2091;-65
2022/12/14 04:31:20;;;;;;;;;;;;;;;12.67;32.27;94732.78;6125214;19;1932;-66
2022/12/14 04:35:42;;;;;;;;;;;;;;;11.68;33.19;94725.91;6115046;19;2120;-66
2022/12/14 04:37:50;;;;;;;;;;;;;;;12.23;32.25;94736.63;6113471;19;2034;-66
2022/12/14 04:39:55;;;;;;;;;;;;;;;11.64;33.23;94743.84;6126385;19;2330;-65
2022/12/14 04:42:01;;;;;;;;;;;;;;;12.07;32.37;94735.81;6126539;19;1912;-66
2022/12/14 04:44:08;;;;;;;;;;;;;;;12.69;33.20;94731.63;6122352;19;1057;-67
2022/12/14 04:46:13;;;;;;;;;;;;;;;15.05;31.98;94738.03;6122192;19;1908;-65
2022/12/14 04:48:19;;;;;;;;;;;;;;;16.57;30.08;94740.63;6100082;19;2134;-64
2022/12/14 04:50:26;;;;;;;;;;;;;;;17.41;29.65;94747.66;6123553;19;2160;-64
2022/12/14 04:52:33;;;;;;;;;;;;;;;17.94;29.39;94741.72;6121470;19;1840;-64
2022/12/14 04:54:42;;;;;;;;;;;;;;;18.25;28.91;94746.47;6123492;19;2128;-64
2022/12/14 04:56:48;;;;;;;;;;;;;;;18.49;28.26;94751.19;6120562;19;1839;-65
2022/12/14 04:58:52;;;;;;;;;;;;;;;18.70;28.78;94744.06;6105785;19;2175;-64
2022/12/14 05:01:04;;;;;;;;;;;;;;;18.86;28.60;94750.78;6112211;19;1983;-63
2022/12/14 05:03:15;;;;;;;;;;;;;;;19.03;28.64;94745.84;6123516;19;2288;-64
2022/12/14 05:05:19;;;;;;;;;;;;;;;19.11;28.09;94742.97;6124681;19;1911;-65
2022/12/14 05:07:27;;;;;;;;;;;;;;;19.15;28.46;94750.34;6124751;19;2096;-65
2022/12/14 05:09:32;;;;;;;;;;;;;;;19.19;28.35;94756.88;6121310;19;2013;-65
2022/12/14 05:11:41;;;;;;;;;;;;;;;19.23;28.40;94741.28;6096388;19;1861;-65
2022/12/14 05:13:47;;;;;;;;;;;;;;;19.26;28.79;94732.88;6119308;19;2107;-66
2022/12/14 05:15:52;;;;;;;;;;;;;;;19.31;28.83;94727.72;6121250;19;1933;-67
2022/12/14 05:17:56;;;;;;;;;;;;;;;19.33;29.02;94736.34;6122159;19;2078;-66
2022/12/14 05:19:59;;;;;;;;;;;;;;;19.38;29.07;94739.19;6122375;19;1955;-66
2022/12/14 05:22:06;;;;;;;;;;;;;;;19.40;28.76;94747.78;6106148;19;1912;-64
2022/12/14 05:24:13;;;;;;;;;;;;;;;19.56;29.39;94751.03;6118635;19;1451;-66
2022/12/14 05:26:26;;;;;;;;;;;;;;;19.68;29.18;94749.34;6117969;19;1541;-65
2022/12/14 05:28:34;;;;;;;;;;;;;;;19.74;29.58;94764.47;6117548;19;2244;-66
2022/12/14 05:30:37;;;;;;;;;;;;;;;19.81;29.43;94765.28;6120685;19;2141;-68
2022/12/14 05:32:41;;;;;;;;;;;;;;;19.83;29.39;94762.38;6116282;19;1886;-65
2022/12/14 05:34:44;;;;;;;;;;;;;;;19.83;29.49;94773.88;6105545;19;1590;-66
2022/12/14 05:36:47;;;;;;;;;;;;;;;19.87;29.24;94779.59;6121194;19;1160;-67
2022/12/14 05:38:50;;;;;;;;;;;;;;;19.87;29.56;94787.59;6121525;19;1000;-67
2022/12/14 05:40:54;;;;;;;;;;;;;;;19.89;29.41;94797.03;6120594;19;1009;-66
2022/12/14 05:43:05;;;;;;;;;;;;;;;19.89;29.57;94802.38;6117740;19;1136;-66
2022/12/14 05:45:12;;;;;;;;;;;;;;;19.87;29.90;94795.59;6095985;19;1451;-65
2022/12/14 05:47:16;;;;;;;;;;;;;;;19.98;29.92;94792.28;6119583;19;1156;-66
2022/12/14 05:49:19;;;;;;;;;;;;;;;20.01;30.30;94785.69;6119389;19;1109;-67
2022/12/14 05:51:23;;;;;;;;;;;;;;;20.04;30.11;94787.94;6118804;19;1084;-65
2022/12/14 05:53:26;;;;;;;;;;;;;;;20.07;30.31;94771.50;6118633;19;1842;-65
2022/12/14 05:55:29;;;;;;;;;;;;;;;20.08;30.39;94778.47;6110339;19;1285;-65
2022/12/14 05:57:33;;;;;;;;;;;;;;;20.12;30.65;94782.34;6108685;19;1865;-66
2022/12/14 05:59:36;;;;;;;;;;;;;;;20.15;30.56;94784.59;6122465;19;1082;-64
2022/12/14 06:01:42;;;;;;;;;;;;;;;20.16;30.69;94777.41;6122745;19;997;-67
2022/12/14 06:03:45;;;;;;;;;;;;;;;20.18;30.65;94780.69;6121753;19;1113;-67
2022/12/14 06:05:49;;;;;;;;;;;;;;;20.21;30.59;94775.72;6120920;19;1028;-65
2022/12/14 06:07:52;;;;;;;;;;;;;;;20.23;30.46;94781.66;6098426;19;1449;-64
2022/12/14 06:09:55;;;;;;;;;;;;;;;20.25;30.30;94784.09;6120162;19;1053;-66
2022/12/14 06:11:58;;;;;;;;;;;;;;;20.26;30.29;94791.06;6119379;19;1845;-68
2022/12/14 06:14:02;;;;;;;;;;;;;;;20.27;30.19;94788.19;6119700;19;1455;-67
2022/12/14 06:16:08;;;;;;;;;;;;;;;20.28;30.35;94781.81;6120493;19;1014;-66
2022/12/14 06:18:14;;;;;;;;;;;;;;;20.30;30.38;94787.75;6109697;19;1078;-68
2022/12/14 06:20:18;;;;;;;;;;;;;;;20.34;30.31;94790.81;6109316;19;1307;-69
2022/12/14 06:22:21;;;;;;;;;;;;;;;20.34;30.26;94780.13;6121996;19;984;-67
2022/12/14 06:24:24;;;;;;;;;;;;;;;20.36;30.39;94790.59;6121575;19;1131;-69
2022/12/14 06:26:28;;;;;;;;;;;;;;;20.37;30.15;94784.25;6120719;19;1124;-72
2022/12/14 06:28:32;;;;;;;;;;;;;;;20.40;30.23;94799.84;6119592;19;962;-71
2022/12/14 06:30:35;;;;;;;;;;;;;;;20.39;30.54;94798.22;6097583;19;1551;-70
2022/12/14 06:32:39;;;;;;;;;;;;;;;20.42;30.54;94819.13;6119772;19;1871;-70
2022/12/14 06:34:46;;;;;;;;;;;;;;;20.42;30.36;94822.59;6120408;19;1050;-72
2022/12/14 06:36:49;;;;;;;;;;;;;;;20.45;30.33;94816.03;6121366;19;1009;-66
2022/12/14 06:38:53;;;;;;;;;;;;;;;20.42;30.70;94819.13;6120870;19;1025;-66
2022/12/14 06:40:56;;;;;;;;;;;;;;;20.42;31.14;94817.28;6108009;19;1402;-65
2022/12/14 06:42:59;;;;;;;;;;;;;;;20.44;30.86;94811.72;6109387;19;2073;-67
2022/12/14 06:45:03;;;;;;;;;;;;;;;20.49;30.86;94810.06;6121278;19;1113;-70
2022/12/14 06:47:06;;;;;;;;;;;;;;;20.52;31.00;94814.16;6120567;19;1050;-69
2022/12/14 06:49:09;;;;;;;;;;;;;;;20.59;30.90;94816.75;6119906;19;1021;-71
2022/12/14 06:51:15;;;;;;;;;;;;;;;20.75;30.57;94805.56;6119854;19;1065;-67
2022/12/14 06:53:19;;;;;;;;;;;;;;;20.87;30.54;94806.47;6096534;19;1858;-68
2022/12/14 06:55:22;;;;;;;;;;;;;;;20.57;29.81;94800.94;6118885;19;1409;-66
2022/12/14 06:57:26;;;;;;;;;;;;;;;20.75;30.34;94813.56;6120495;19;1033;-69
2022/12/14 06:59:29;;;;;;;;;;;;;;;20.99;30.33;94811.91;6120255;19;1058;-67
2022/12/14 07:01:32;;;;;;;;;;;;;;;21.11;30.23;94807.47;6120885;19;1025;-66
2022/12/14 07:03:36;;;;;;;;;;;;;;;21.23;29.87;94808.44;6111204;19;1233;-66
2022/12/14 07:05:39;;;;;;;;;;;;;;;21.33;30.09;94804.44;6108917;19;1280;-67
2022/12/14 07:07:45;;;;;;;;;;;;;;;21.39;30.02;94816.91;6119978;19;1303;-67
2022/12/14 07:09:49;;;;;;;;;;;;;;;21.45;29.80;94834.72;6120955;19;1000;-67
2022/12/14 07:11:52;;;;;;;;;;;;;;;21.49;29.69;94843.16;6119466;19;1028;-70
2022/12/14 07:13:56;;;;;;;;;;;;;;;21.53;29.60;94845.13;6118878;19;1834;-69
2022/12/14 07:16:00;;;;;;;;;;;;;;;21.55;30.11;94850.28;6097100;19;1639;-67
2022/12/14 07:18:03;;;;;;;;;;;;;;;21.58;29.95;94842.63;6119434;19;1009;-69
2022/12/14 07:20:08;;;;;;;;;;;;;;;21.59;30.22;94835.41;6120234;19;1009;-71
2022/12/14 07:22:11;;;;;;;;;;;;;;;21.61;29.78;94828.81;6119937;19;1141;-72
2022/12/14 07:24:17;;;;;;;;;;;;;;;21.65;30.16;94826.50;6119642;19;1120;-68
2022/12/14 07:26:21;;;;;;;;;;;;;;;21.68;30.06;94821.53;6107874;19;1267;-67
2022/12/14 07:28:24;;;;;;;;;;;;;;;21.69;29.85;94814.34;6107098;19;1265;-68
2022/12/14 07:30:28;;;;;;;;;;;;;;;21.66;30.11;94828.97;6119289;19;1290;-74
2022/12/14 07:32:31;;;;;;;;;;;;;;;21.66;29.87;94836.97;6118668;19;1861;-71
2022/12/14 07:34:34;;;;;;;;;;;;;;;21.65;30.03;94832.69;6120217;19;1018;-71
2022/12/14 07:36:38;;;;;;;;;;;;;;;21.61;29.81;94826.13;6120018;19;959;-74
2022/12/14 07:38:42;;;;;;;;;;;;;;;21.64;30.28;94820.34;6096985;19;1620;-69
2022/12/14 07:40:48;;;;;;;;;;;;;;;21.65;30.33;94837.19;6122456;19;1604;-68
2022/12/14 07:42:51;;;;;;;;;;;;;;;21.67;30.28;94843.97;6125729;19;1508;-68
2022/12/14 07:44:55;;;;;;;;;;;;;;;21.65;30.17;94846.06;6126166;19;1020;-70
2022/12/14 07:46:58;;;;;;;;;;;;;;;21.64;30.40;94844.41;6125953;19;1066;-71
2022/12/14 07:49:04;;;;;;;;;;;;;;;21.60;30.04;94847.75;6115802;19;1593;-63
2022/12/14 07:51:08;;;;;;;;;;;;;;;21.55;30.36;94845.75;6111841;19;1350;-65
2022/12/14 07:53:12;;;;;;;;;;;;;;;21.53;30.57;94833.63;6124988;19;1857;-65
2022/12/14 07:55:15;;;;;;;;;;;;;;;21.57;30.70;94840.16;6124502;19;1144;-70
2022/12/14 07:57:21;;;;;;;;;;;;;;;21.55;30.61;94836.91;6125902;19;982;-66
2022/12/14 07:59:24;;;;;;;;;;;;;;;21.52;30.20;94840.84;6125553;19;958;-67
2022/12/14 08:01:29;;;;;;;;;;;;;;;21.51;30.28;94839.19;6100143;19;1530;-65
2022/12/14 08:03:32;;;;;;;;;;;;;;;21.47;30.33;94832.66;6122574;19;1049;-66
2022/12/14 08:05:36;;;;;;;;;;;;;;;21.44;30.46;94833.91;6125317;19;1202;-67
2022/12/14 08:07:39;;;;;;;;;;;;;;;21.43;30.42;94831.47;6123308;19;1049;-65
2022/12/14 08:09:42;;;;;;;;;;;;;;;21.44;30.87;94841.13;6124050;19;1062;-65
2022/12/14 08:11:45;;;;;;;;;;;;;;;21.42;30.79;94844.00;6114896;19;1652;-64
2022/12/14 08:13:53;;;;;;;;;;;;;;;21.43;30.76;94836.81;6111196;19;2203;-66
2022/12/14 08:15:57;;;;;;;;;;;;;;;21.43;30.67;94845.66;6125026;19;1022;-66
2022/12/14 08:18:00;;;;;;;;;;;;;;;21.41;31.00;94849.59;6124246;19;1131;-66
2022/12/14 08:20:03;;;;;;;;;;;;;;;21.39;30.89;94857.81;6124402;19;1012;-65
2022/12/14 08:22:07;;;;;;;;;;;;;;;21.39;30.91;94851.66;6122531;19;1158;-65
2022/12/14 08:24:12;;;;;;;;;;;;;;;21.39;30.56;94860.50;6100420;19;1623;-65
2022/12/14 08:26:15;;;;;;;;;;;;;;;21.37;30.69;94869.75;6123968;19;1172;-66
2022/12/14 08:28:18;;;;;;;;;;;;;;;21.36;30.51;94863.59;6124153;19;1116;-67
2022/12/14 08:30:24;;;;;;;;;;;;;;;21.37;30.68;94864.41;6123437;19;1344;-66
2022/12/14 08:32:28;;;;;;;;;;;;;;;21.37;30.87;94865.25;6123256;19;1124;-65
2022/12/14 08:34:31;;;;;;;;;;;;;;;21.38;30.88;94872.22;6110771;19;1184;-65
2022/12/14 08:36:35;;;;;;;;;;;;;;;21.39;30.77;94868.50;6112342;19;1183;-66
2022/12/14 08:38:39;;;;;;;;;;;;;;;21.39;30.62;94873.03;6122343;19;1050;-66
2022/12/14 08:40:42;;;;;;;;;;;;;;;21.40;30.66;94869.34;6121003;19;970;-66
2022/12/14 08:42:45;;;;;;;;;;;;;;;21.38;30.80;94876.75;6124311;19;1021;-68
2022/12/14 08:44:49;;;;;;;;;;;;;;;21.37;30.79;94864.41;6124129;19;1116;-66
2022/12/14 08:46:55;;;;;;;;;;;;;;;21.32;30.89;94861.59;6100081;19;1578;-67
2022/12/14 08:48:58;;;;;;;;;;;;;;;21.32;31.11;94856.25;6121935;19;1120;-66
2022/12/14 08:51:05;;;;;;;;;;;;;;;21.37;30.58;94851.06;6121337;19;1136;-66
2022/12/14 08:53:08;;;;;;;;;;;;;;;21.38;30.92;94836.66;6121574;19;1861;-67
2022/12/14 08:55:11;;;;;;;;;;;;;;;21.41;30.83;94846.91;6123011;19;946;-67
2022/12/14 08:57:15;;;;;;;;;;;;;;;21.38;31.03;94850.03;6112538;19;1086;-68
2022/12/14 08:59:18;;;;;;;;;;;;;;;21.38;30.92;94860.72;6111311;19;1335;-67
2022/12/14 09:01:22;;;;;;;;;;;;;;;21.39;30.68;94859.66;6122593;19;994;-67
2022/12/14 09:03:28;;;;;;;;;;;;;;;21.43;30.68;94852.88;6123652;19;946;-67
2022/12/14 09:05:31;;;;;;;;;;;;;;;21.42;30.75;94840.53;6123457;19;1070;-67
2022/12/14 09:07:35;;;;;;;;;;;;;;;21.41;30.82;94850.41;6121629;19;1033;-67
2022/12/14 09:09:38;;;;;;;;;;;;;;;21.43;31.03;94848.34;6098243;19;1530;-66
2022/12/14 09:11:42;;;;;;;;;;;;;;;21.46;30.75;94836.38;6123145;19;1128;-64
2022/12/14 09:13:45;;;;;;;;;;;;;;;21.45;30.63;94837.41;6122046;19;1843;-66
2022/12/14 09:15:56;;;;;;;;;;;;;;;21.44;30.79;94841.94;6123037;19;1120;-66
2022/12/14 09:18:00;;;;;;;;;;;;;;;21.41;30.84;94838.91;6122932;19;1113;-66
2022/12/14 09:20:06;;;;;;;;;;;;;;;21.47;30.81;94840.69;6111716;19;1131;-66
2022/12/14 09:22:10;;;;;;;;;;;;;;;21.44;30.69;94839.25;6111340;19;2137;-67
2022/12/14 09:24:13;;;;;;;;;;;;;;;21.40;30.59;94827.41;6122294;19;1025;-66
2022/12/14 09:26:18;;;;;;;;;;;;;;;21.37;30.34;94822.50;6123253;19;1033;-66
2022/12/14 09:28:21;;;;;;;;;;;;;;;21.38;30.29;94826.78;6121229;19;1041;-66
2022/12/14 09:30:24;;;;;;;;;;;;;;;21.38;30.31;94829.47;6121358;19;1298;-66
2022/12/14 09:32:29;;;;;;;;;;;;;;;21.38;30.31;94837.47;6099364;19;1384;-66
2022/12/14 09:34:32;;;;;;;;;;;;;;;21.35;30.00;94823.75;6121464;19;1860;-66
2022/12/14 09:36:39;;;;;;;;;;;;;;;21.38;29.93;94824.13;6120833;19;1038;-66
2022/12/14 09:38:43;;;;;;;;;;;;;;;21.34;29.88;94817.59;6121447;19;1144;-65
2022/12/14 09:40:50;;;;;;;;;;;;;;;21.38;30.29;94815.28;6121705;19;1013;-66
2022/12/14 09:43:00;;;;;;;;;;;;;;;21.36;30.12;94812.81;6110666;19;1098;-65
2022/12/14 09:45:08;;;;;;;;;;;;;;;21.38;30.60;94808.09;6108596;19;1398;-66
2022/12/14 09:47:13;;;;;;;;;;;;;;;21.35;30.47;94819.22;6121268;19;970;-66
2022/12/14 09:49:26;;;;;;;;;;;;;;;21.35;30.34;94818.41;6121646;19;1124;-65
2022/12/14 09:51:33;;;;;;;;;;;;;;;21.36;30.52;94809.34;6121668;19;1009;-65
2022/12/14 09:53:40;;;;;;;;;;;;;;;21.36;30.46;94815.50;6120830;19;1854;-67
2022/12/14 09:55:45;;;;;;;;;;;;;;;21.36;30.58;94806.66;6098547;19;2111;-65
2022/12/14 09:57:50;;;;;;;;;;;;;;;21.41;30.83;94812.16;6119522;19;1065;-66
2022/12/14 09:59:54;;;;;;;;;;;;;;;21.41;30.83;94807.63;6120176;19;1006;-66
2022/12/14 10:02:02;;;;;;;;;;;;;;;21.40;30.54;94822.06;6118571;19;1058;-67
2022/12/14 10:04:13;;;;;;;;;;;;;;;21.36;30.93;94818.16;6119382;19;1061;-66
2022/12/14 10:06:29;;;;;;;;;;;;;;;21.38;30.89;94807.28;6097118;19;2352;-66
2022/12/14 10:08:36;;;;;;;;;;;;;;;21.41;30.94;94801.47;6120181;19;1072;-66
2022/12/14 10:10:49;;;;;;;;;;;;;;;21.40;31.24;94795.31;6120993;19;1216;-64
2022/12/14 10:12:59;;;;;;;;;;;;;;;21.40;31.10;94787.31;6121285;19;1016;-66
2022/12/14 10:15:09;;;;;;;;;;;;;;;21.45;31.22;94782.13;6119510;19;1851;-65
2022/12/14 10:17:16;;;;;;;;;;;;;;;21.49;30.70;94785.16;6107021;19;1317;-64
2022/12/14 10:19:24;;;;;;;;;;;;;;;21.48;30.45;94780.81;6116963;19;1838;-65
2022/12/14 10:21:28;;;;;;;;;;;;;;;21.43;30.20;94778.84;6120511;19;1024;-64
2022/12/14 10:23:32;;;;;;;;;;;;;;;21.40;30.44;94775.81;6119420;19;1129;-64
2022/12/14 10:25:38;;;;;;;;;;;;;;;21.37;30.39;94774.38;6120645;19;1021;-65
2022/12/14 10:27:48;;;;;;;;;;;;;;;21.40;30.19;94773.13;6119274;19;1038;-64
2022/12/14 10:30:01;;;;;;;;;;;;;;;21.36;29.95;94766.56;6099199;19;1863;-64
2022/12/14 10:32:09;;;;;;;;;;;;;;;21.33;30.28;94769.69;6120708;19;1013;-64
2022/12/14 10:34:18;;;;;;;;;;;;;;;21.42;30.18;94773.69;6119992;19;1842;-64
2022/12/14 10:36:25;;;;;;;;;;;;;;;21.45;29.99;94773.25;6120160;19;1284;-65
2022/12/14 10:38:35;;;;;;;;;;;;;;;21.43;30.15;94772.69;6119637;19;1045;-65
2022/12/14 10:40:43;;;;;;;;;;;;;;;21.48;29.68;94759.44;6097060;19;1858;-64
2022/12/14 10:42:53;;;;;;;;;;;;;;;21.46;30.02;94756.19;6118392;19;1054;-64
2022/12/14 10:45:00;;;;;;;;;;;;;;;21.43;29.96;94745.94;6119678;19;990;-64
2022/12/14 10:47:06;;;;;;;;;;;;;;;21.42;29.73;94758.47;6119936;19;927;-64
2022/12/14 10:49:14;;;;;;;;;;;;;;;21.43;30.14;94743.28;6119762;19;1046;-64
2022/12/14 10:51:21;;;;;;;;;;;;;;;21.43;29.68;94729.91;6104007;19;1549;-64
2022/12/14 10:53:27;;;;;;;;;;;;;;;21.42;29.88;94750.47;6116442;19;2237;-65
2022/12/14 10:55:34;;;;;;;;;;;;;;;21.38;29.94;94749.28;6119956;19;1042;-65
2022/12/14 10:57:37;;;;;;;;;;;;;;;21.39;30.33;94748.22;6119981;19;1034;-65
2022/12/14 10:59:45;;;;;;;;;;;;;;;21.32;30.38;94741.34;6117490;19;1049;-65
2022/12/14 11:01:49;;;;;;;;;;;;;;;21.36;30.20;94737.19;6118164;19;974;-65
2022/12/14 11:03:54;;;;;;;;;;;;;;;21.38;29.94;94737.78;6096371;19;1624;-65
2022/12/14 11:06:01;;;;;;;;;;;;;;;21.39;30.08;94740.22;6119799;19;1017;-65
2022/12/14 11:08:06;;;;;;;;;;;;;;;21.39;29.86;94745.56;6118471;19;1029;-65
2022/12/14 11:10:16;;;;;;;;;;;;;;;21.42;29.87;94733.59;6119239;19;1135;-64
2022/12/14 11:12:21;;;;;;;;;;;;;;;21.42;29.77;94729.06;6117679;19;1058;-66
2022/12/14 11:14:25;;;;;;;;;;;;;;;21.37;32.54;94730.78;6094305;19;1846;-66
2022/12/14 11:16:36;;;;;;;;;;;;;;;21.32;33.46;94731.47;6118494;19;1120;-65
2022/12/14 11:18:39;;;;;;;;;;;;;;;21.33;33.73;94726.94;6119302;19;1061;-65